WZZ29AV LGKR-LIMC
Flight info
| Callsign | WZZ29AV |
|---|---|
| Flight time | 1h 42m |
| Altitude | 36000 |
| Route | OLGAT L53 ENOXA Q920 VIE L612 ANC M730 MIVKI T648 MEBUR |
| Aircraft | A320/M-SDE3FGHIRWY/LB1 |
Departure
| Time | 2026-05-01 09:50 |
|---|---|
| Airport | Corfu Ioannis Kapodistrias International Airport (LGKR) |
Arrival
| Time | 2026-05-01 11:33 |
|---|---|
| Airport | Milan Malpensa International Airport (LIMC) |
| Time | Latitude | Longitude | Altitude | Speed | Heading |
|---|---|---|---|---|---|
| 2026-05-01 09:27 | 39.60761 | 19.91334 | 19 ft | 0 kts | 79° |
| 2026-05-01 09:41 | 39.60757 | 19.91310 | 21 ft | 3 kts | 79° |
| 2026-05-01 09:42 | 39.60753 | 19.91284 | 20 ft | 3 kts | 79° |
| 2026-05-01 09:42 | 39.60750 | 19.91258 | 19 ft | 3 kts | 79° |
| 2026-05-01 09:42 | 39.60742 | 19.91213 | 19 ft | 1 kts | 119° |
| 2026-05-01 09:43 | 39.60756 | 19.91203 | 21 ft | 1 kts | 168° |
| 2026-05-01 09:43 | 39.60764 | 19.91201 | 20 ft | 0 kts | 169° |
| 2026-05-01 09:44 | 39.60761 | 19.91201 | 19 ft | 1 kts | 169° |
| 2026-05-01 09:44 | 39.60747 | 19.91205 | 18 ft | 3 kts | 169° |
| 2026-05-01 09:45 | 39.60721 | 19.91211 | 18 ft | 5 kts | 169° |
| 2026-05-01 09:45 | 39.60635 | 19.91229 | 18 ft | 8 kts | 179° |
| 2026-05-01 09:45 | 39.60582 | 19.91200 | 18 ft | 9 kts | 219° |
| 2026-05-01 09:46 | 39.60520 | 19.91158 | 21 ft | 11 kts | 201° |
| 2026-05-01 09:46 | 39.60442 | 19.91146 | 19 ft | 12 kts | 174° |
| 2026-05-01 09:46 | 39.60354 | 19.91170 | 19 ft | 14 kts | 168° |
| 2026-05-01 09:46 | 39.60258 | 19.91194 | 21 ft | 14 kts | 169° |
| 2026-05-01 09:47 | 39.60156 | 19.91223 | 21 ft | 16 kts | 168° |
| 2026-05-01 09:47 | 39.60039 | 19.91256 | 22 ft | 18 kts | 167° |
| 2026-05-01 09:47 | 39.59909 | 19.91288 | 23 ft | 20 kts | 168° |
| 2026-05-01 09:47 | 39.59769 | 19.91324 | 22 ft | 22 kts | 168° |
| 2026-05-01 09:48 | 39.59609 | 19.91368 | 20 ft | 25 kts | 169° |
| 2026-05-01 09:48 | 39.59433 | 19.91413 | 17 ft | 27 kts | 169° |
| 2026-05-01 09:48 | 39.59269 | 19.91452 | 17 ft | 9 kts | 171° |
| 2026-05-01 09:48 | 39.59201 | 19.91450 | 17 ft | 11 kts | 200° |
| 2026-05-01 09:49 | 39.59147 | 19.91467 | 17 ft | 9 kts | 107° |
| 2026-05-01 09:49 | 39.59190 | 19.91489 | 17 ft | 9 kts | 317° |
| 2026-05-01 09:49 | 39.59254 | 19.91457 | 17 ft | 11 kts | 349° |
| 2026-05-01 09:49 | 39.59417 | 19.91416 | 17 ft | 54 kts | 349° |
| 2026-05-01 09:50 | 39.60016 | 19.91261 | 21 ft | 118 kts | 348° |
| 2026-05-01 09:50 | 39.60993 | 19.91014 | 52 ft | 163 kts | 350° |
| 2026-05-01 09:50 | 39.62072 | 19.90713 | 780 ft | 155 kts | 350° |
| 2026-05-01 09:50 | 39.63139 | 19.90442 | 1446 ft | 159 kts | 350° |
| 2026-05-01 09:51 | 39.64281 | 19.90131 | 1786 ft | 179 kts | 341° |
| 2026-05-01 09:51 | 39.65352 | 19.89151 | 2102 ft | 203 kts | 307° |
| 2026-05-01 09:51 | 39.65824 | 19.87354 | 2552 ft | 221 kts | 271° |
| 2026-05-01 09:51 | 39.65801 | 19.85340 | 3282 ft | 224 kts | 269° |
| 2026-05-01 09:52 | 39.65767 | 19.83307 | 4048 ft | 226 kts | 269° |
| 2026-05-01 09:52 | 39.65736 | 19.81252 | 4838 ft | 228 kts | 271° |
| 2026-05-01 09:52 | 39.66023 | 19.79235 | 5581 ft | 230 kts | 294° |
| 2026-05-01 09:52 | 39.66930 | 19.77474 | 6071 ft | 246 kts | 315° |
| 2026-05-01 09:53 | 39.68194 | 19.75816 | 6449 ft | 268 kts | 315° |
| 2026-05-01 09:53 | 39.69504 | 19.74088 | 7131 ft | 275 kts | 314° |
| 2026-05-01 09:53 | 39.70848 | 19.72306 | 7945 ft | 277 kts | 314° |
| 2026-05-01 09:53 | 39.72202 | 19.70504 | 8779 ft | 280 kts | 314° |
| 2026-05-01 09:54 | 39.73565 | 19.68685 | 9595 ft | 282 kts | 314° |
| 2026-05-01 09:54 | 39.74942 | 19.66844 | 10335 ft | 287 kts | 314° |
| 2026-05-01 09:54 | 39.76383 | 19.64915 | 10589 ft | 309 kts | 314° |
| 2026-05-01 09:54 | 39.77396 | 19.63560 | 10746 ft | 321 kts | 314° |
| 2026-05-01 09:55 | 39.78973 | 19.61450 | 11290 ft | 328 kts | 314° |
| 2026-05-01 09:55 | 39.80571 | 19.59312 | 11978 ft | 331 kts | 313° |
| 2026-05-01 09:55 | 39.82176 | 19.57160 | 12689 ft | 332 kts | 313° |
| 2026-05-01 09:55 | 39.83789 | 19.54992 | 13400 ft | 334 kts | 313° |
| 2026-05-01 09:56 | 39.85410 | 19.52811 | 14050 ft | 336 kts | 313° |
| 2026-05-01 09:56 | 39.87042 | 19.50616 | 14663 ft | 339 kts | 313° |
| 2026-05-01 09:56 | 39.88687 | 19.48406 | 15249 ft | 341 kts | 313° |
| 2026-05-01 09:56 | 39.90343 | 19.46187 | 15832 ft | 343 kts | 313° |
| 2026-05-01 09:57 | 39.92011 | 19.43952 | 16410 ft | 345 kts | 313° |
| 2026-05-01 09:57 | 39.93690 | 19.41698 | 16995 ft | 348 kts | 313° |
| 2026-05-01 09:57 | 39.95381 | 19.39427 | 17590 ft | 350 kts | 312° |
| 2026-05-01 09:57 | 39.97081 | 19.37138 | 18174 ft | 353 kts | 312° |
| 2026-05-01 09:58 | 39.98793 | 19.34829 | 18702 ft | 355 kts | 312° |
| 2026-05-01 09:58 | 40.00514 | 19.32504 | 19233 ft | 357 kts | 312° |
| 2026-05-01 09:58 | 40.02244 | 19.30166 | 19780 ft | 359 kts | 312° |
| 2026-05-01 09:58 | 40.03983 | 19.27820 | 20327 ft | 360 kts | 312° |
| 2026-05-01 09:59 | 40.05729 | 19.25463 | 20848 ft | 362 kts | 311° |
| 2026-05-01 09:59 | 40.07481 | 19.23093 | 21342 ft | 364 kts | 311° |
| 2026-05-01 09:59 | 40.09241 | 19.20705 | 21833 ft | 366 kts | 311° |
| 2026-05-01 09:59 | 40.10984 | 19.18335 | 22323 ft | 367 kts | 311° |
| 2026-05-01 10:00 | 40.12783 | 19.15890 | 22802 ft | 369 kts | 311° |
| 2026-05-01 10:00 | 40.14544 | 19.13496 | 23263 ft | 371 kts | 311° |
| 2026-05-01 10:00 | 40.16340 | 19.11059 | 23724 ft | 373 kts | 311° |
| 2026-05-01 10:00 | 40.18146 | 19.08608 | 24116 ft | 375 kts | 311° |
| 2026-05-01 10:01 | 40.19962 | 19.06146 | 24512 ft | 377 kts | 311° |
| 2026-05-01 10:01 | 40.21781 | 19.03675 | 24910 ft | 378 kts | 311° |
| 2026-05-01 10:01 | 40.23608 | 19.01188 | 25313 ft | 379 kts | 311° |
| 2026-05-01 10:01 | 40.25437 | 18.98688 | 25707 ft | 380 kts | 310° |
| 2026-05-01 10:02 | 40.27269 | 18.96186 | 26095 ft | 381 kts | 310° |
| 2026-05-01 10:02 | 40.29112 | 18.93675 | 26479 ft | 383 kts | 310° |
| 2026-05-01 10:02 | 40.30963 | 18.91156 | 26864 ft | 384 kts | 310° |
| 2026-05-01 10:02 | 40.32817 | 18.88633 | 27225 ft | 386 kts | 310° |
| 2026-05-01 10:03 | 40.34681 | 18.86089 | 27596 ft | 387 kts | 310° |
| 2026-05-01 10:03 | 40.36549 | 18.83534 | 27953 ft | 389 kts | 310° |
| 2026-05-01 10:03 | 40.38397 | 18.81001 | 28323 ft | 391 kts | 310° |
| 2026-05-01 10:03 | 40.40306 | 18.78384 | 28695 ft | 392 kts | 310° |
| 2026-05-01 10:04 | 40.42172 | 18.75829 | 29047 ft | 394 kts | 310° |
| 2026-05-01 10:04 | 40.44071 | 18.73227 | 29400 ft | 396 kts | 310° |
| 2026-05-01 10:04 | 40.45986 | 18.70599 | 29759 ft | 398 kts | 310° |
| 2026-05-01 10:04 | 40.47891 | 18.67978 | 30254 ft | 396 kts | 310° |
| 2026-05-01 10:05 | 40.49790 | 18.65365 | 30662 ft | 395 kts | 310° |
| 2026-05-01 10:05 | 40.51686 | 18.62757 | 31040 ft | 394 kts | 310° |
| 2026-05-01 10:05 | 40.53580 | 18.60147 | 31432 ft | 394 kts | 310° |
| 2026-05-01 10:05 | 40.55468 | 18.57539 | 31798 ft | 394 kts | 310° |
| 2026-05-01 10:06 | 40.57358 | 18.54926 | 32169 ft | 394 kts | 310° |
| 2026-05-01 10:06 | 40.59247 | 18.52316 | 32548 ft | 394 kts | 310° |
| 2026-05-01 10:06 | 40.61141 | 18.49700 | 32944 ft | 394 kts | 310° |
| 2026-05-01 10:06 | 40.63027 | 18.47092 | 33323 ft | 394 kts | 310° |
| 2026-05-01 10:07 | 40.64912 | 18.44483 | 33687 ft | 394 kts | 310° |
| 2026-05-01 10:07 | 40.66799 | 18.41867 | 34073 ft | 393 kts | 310° |
| 2026-05-01 10:07 | 40.68685 | 18.39249 | 34375 ft | 394 kts | 310° |
| 2026-05-01 10:07 | 40.70568 | 18.36631 | 34644 ft | 394 kts | 310° |
| 2026-05-01 10:08 | 40.74343 | 18.31379 | 35182 ft | 395 kts | 310° |
| 2026-05-01 10:08 | 40.76233 | 18.28752 | 35448 ft | 395 kts | 310° |
| 2026-05-01 10:08 | 40.78123 | 18.26118 | 35707 ft | 395 kts | 310° |
| 2026-05-01 10:09 | 40.80015 | 18.23476 | 35956 ft | 396 kts | 310° |
| 2026-05-01 10:09 | 40.81910 | 18.20833 | 36138 ft | 397 kts | 311° |
| 2026-05-01 10:09 | 40.83789 | 18.18213 | 36186 ft | 401 kts | 311° |
| 2026-05-01 10:10 | 40.87637 | 18.12827 | 36190 ft | 404 kts | 311° |
| 2026-05-01 10:10 | 40.93432 | 18.04697 | 36196 ft | 405 kts | 311° |
| 2026-05-01 10:11 | 40.97297 | 17.99268 | 36201 ft | 406 kts | 311° |
| 2026-05-01 10:11 | 41.01157 | 17.93812 | 36203 ft | 406 kts | 311° |
| 2026-05-01 10:12 | 41.05022 | 17.88349 | 36207 ft | 407 kts | 311° |
| 2026-05-01 10:13 | 41.10821 | 17.80130 | 36205 ft | 407 kts | 311° |
| 2026-05-01 10:13 | 41.14695 | 17.74637 | 36212 ft | 407 kts | 311° |
| 2026-05-01 10:14 | 41.20374 | 17.66263 | 36214 ft | 406 kts | 303° |
| 2026-05-01 10:14 | 41.23305 | 17.59874 | 36216 ft | 405 kts | 300° |
| 2026-05-01 10:15 | 41.26193 | 17.53438 | 36214 ft | 405 kts | 300° |
| 2026-05-01 10:15 | 41.29065 | 17.47036 | 36218 ft | 405 kts | 300° |
| 2026-05-01 10:16 | 41.31947 | 17.40590 | 36215 ft | 405 kts | 300° |
| 2026-05-01 10:17 | 41.36270 | 17.30917 | 36215 ft | 406 kts | 300° |
| 2026-05-01 10:17 | 41.40584 | 17.21220 | 36222 ft | 405 kts | 300° |
| 2026-05-01 10:18 | 41.44747 | 17.11842 | 36223 ft | 405 kts | 300° |
| 2026-05-01 10:19 | 41.47616 | 17.05366 | 36220 ft | 405 kts | 300° |
| 2026-05-01 10:19 | 41.50471 | 16.98887 | 36226 ft | 405 kts | 300° |
| 2026-05-01 10:20 | 41.54732 | 16.89198 | 36226 ft | 405 kts | 300° |
| 2026-05-01 10:20 | 41.57576 | 16.82704 | 36233 ft | 405 kts | 300° |
| 2026-05-01 10:21 | 41.61846 | 16.72960 | 36236 ft | 405 kts | 300° |
| 2026-05-01 10:22 | 41.66121 | 16.63214 | 36241 ft | 405 kts | 300° |
| 2026-05-01 10:23 | 41.70365 | 16.53441 | 36246 ft | 405 kts | 300° |
| 2026-05-01 10:23 | 41.74611 | 16.43672 | 36258 ft | 405 kts | 300° |
| 2026-05-01 10:24 | 41.80236 | 16.30654 | 36263 ft | 405 kts | 300° |
| 2026-05-01 10:25 | 41.85856 | 16.17585 | 36272 ft | 405 kts | 300° |
| 2026-05-01 10:26 | 41.88665 | 16.11045 | 36278 ft | 404 kts | 300° |
| 2026-05-01 10:27 | 41.95325 | 15.98939 | 36276 ft | 405 kts | 311° |
| 2026-05-01 10:28 | 42.01016 | 15.90543 | 36276 ft | 405 kts | 311° |
| 2026-05-01 10:28 | 42.06700 | 15.82123 | 36278 ft | 405 kts | 311° |
| 2026-05-01 10:29 | 42.12371 | 15.73678 | 36285 ft | 405 kts | 311° |
| 2026-05-01 10:30 | 42.19937 | 15.62399 | 36294 ft | 405 kts | 311° |
| 2026-05-01 10:31 | 42.27446 | 15.51144 | 36298 ft | 405 kts | 311° |
| 2026-05-01 10:32 | 42.33079 | 15.42655 | 36311 ft | 404 kts | 311° |
| 2026-05-01 10:33 | 42.40565 | 15.31323 | 36315 ft | 403 kts | 311° |
| 2026-05-01 10:34 | 42.46154 | 15.22817 | 36315 ft | 403 kts | 311° |
| 2026-05-01 10:34 | 42.49878 | 15.17152 | 36315 ft | 402 kts | 311° |
| 2026-05-01 10:35 | 42.55460 | 15.08670 | 36317 ft | 402 kts | 311° |
| 2026-05-01 10:35 | 42.59170 | 15.03012 | 36320 ft | 401 kts | 311° |
| 2026-05-01 10:36 | 42.64702 | 14.94544 | 36324 ft | 401 kts | 311° |
| 2026-05-01 10:37 | 42.68397 | 14.88878 | 36322 ft | 401 kts | 310° |
| 2026-05-01 10:37 | 42.73939 | 14.80371 | 36331 ft | 400 kts | 311° |
| 2026-05-01 10:38 | 42.77624 | 14.74697 | 36332 ft | 400 kts | 310° |
| 2026-05-01 10:38 | 42.81303 | 14.69015 | 36337 ft | 400 kts | 311° |
| 2026-05-01 10:39 | 42.84983 | 14.63324 | 36338 ft | 400 kts | 310° |
| 2026-05-01 10:39 | 42.88658 | 14.57633 | 36343 ft | 400 kts | 311° |
| 2026-05-01 10:40 | 42.92303 | 14.51976 | 36347 ft | 400 kts | 310° |
| 2026-05-01 10:40 | 42.95971 | 14.46274 | 36347 ft | 399 kts | 310° |
| 2026-05-01 10:41 | 42.99632 | 14.40568 | 36350 ft | 399 kts | 310° |
| 2026-05-01 10:42 | 43.05109 | 14.32017 | 36349 ft | 398 kts | 310° |
| 2026-05-01 10:42 | 43.08754 | 14.26313 | 36357 ft | 398 kts | 310° |
| 2026-05-01 10:43 | 43.12372 | 14.20633 | 36355 ft | 398 kts | 310° |
| 2026-05-01 10:43 | 43.16006 | 14.14913 | 36358 ft | 398 kts | 310° |
| 2026-05-01 10:44 | 43.19648 | 14.09200 | 36362 ft | 398 kts | 310° |
| 2026-05-01 10:44 | 43.23281 | 14.03486 | 36364 ft | 398 kts | 310° |
| 2026-05-01 10:45 | 43.26915 | 13.97754 | 36361 ft | 397 kts | 310° |
| 2026-05-01 10:45 | 43.30536 | 13.92017 | 36360 ft | 397 kts | 310° |
| 2026-05-01 10:46 | 43.34155 | 13.86284 | 36359 ft | 397 kts | 310° |
| 2026-05-01 10:46 | 43.37770 | 13.80540 | 36360 ft | 397 kts | 310° |
| 2026-05-01 10:47 | 43.41379 | 13.74789 | 36362 ft | 397 kts | 310° |
| 2026-05-01 10:47 | 43.44964 | 13.69073 | 36363 ft | 397 kts | 311° |
| 2026-05-01 10:48 | 43.48570 | 13.63310 | 36366 ft | 397 kts | 310° |
| 2026-05-01 10:48 | 43.52169 | 13.57526 | 36368 ft | 397 kts | 310° |
| 2026-05-01 10:49 | 43.55156 | 13.52723 | 36370 ft | 398 kts | 310° |
| 2026-05-01 10:49 | 43.58401 | 13.46571 | 36367 ft | 399 kts | 297° |
| 2026-05-01 10:50 | 43.60124 | 13.39278 | 36360 ft | 401 kts | 287° |
| 2026-05-01 10:50 | 43.61544 | 13.31837 | 36360 ft | 401 kts | 287° |
| 2026-05-01 10:51 | 43.62965 | 13.24388 | 36364 ft | 401 kts | 287° |
| 2026-05-01 10:51 | 43.64371 | 13.16936 | 36359 ft | 401 kts | 287° |
| 2026-05-01 10:52 | 43.65766 | 13.09476 | 36363 ft | 401 kts | 287° |
| 2026-05-01 10:52 | 43.67154 | 13.02014 | 36372 ft | 401 kts | 287° |
| 2026-05-01 10:53 | 43.68540 | 12.94548 | 36373 ft | 401 kts | 287° |
| 2026-05-01 10:53 | 43.69918 | 12.87093 | 36380 ft | 400 kts | 287° |
| 2026-05-01 10:54 | 43.71278 | 12.79682 | 36381 ft | 400 kts | 287° |
| 2026-05-01 10:54 | 43.72645 | 12.72234 | 36382 ft | 399 kts | 287° |
| 2026-05-01 10:55 | 43.74001 | 12.64789 | 36385 ft | 399 kts | 287° |
| 2026-05-01 10:55 | 43.75351 | 12.57349 | 36392 ft | 399 kts | 287° |
| 2026-05-01 10:56 | 43.76689 | 12.49912 | 36392 ft | 398 kts | 286° |
| 2026-05-01 10:56 | 43.78021 | 12.42488 | 36387 ft | 398 kts | 287° |
| 2026-05-01 10:57 | 43.79356 | 12.35074 | 36387 ft | 397 kts | 286° |
| 2026-05-01 10:57 | 43.80696 | 12.27667 | 36395 ft | 397 kts | 287° |
| 2026-05-01 10:58 | 43.82050 | 12.20269 | 36385 ft | 396 kts | 287° |
| 2026-05-01 10:58 | 43.83369 | 12.12867 | 36382 ft | 396 kts | 286° |
| 2026-05-01 10:59 | 43.84660 | 12.05465 | 36391 ft | 395 kts | 286° |
| 2026-05-01 10:59 | 43.85947 | 11.98069 | 36384 ft | 395 kts | 286° |
| 2026-05-01 11:00 | 43.87240 | 11.90667 | 36384 ft | 395 kts | 286° |
| 2026-05-01 11:00 | 43.88529 | 11.83280 | 36382 ft | 394 kts | 286° |
| 2026-05-01 11:01 | 43.89813 | 11.75898 | 36379 ft | 394 kts | 286° |
| 2026-05-01 11:01 | 43.91106 | 11.68524 | 36374 ft | 393 kts | 286° |
| 2026-05-01 11:02 | 43.92391 | 11.61160 | 36359 ft | 393 kts | 281° |
| 2026-05-01 11:02 | 43.93661 | 11.53812 | 36350 ft | 391 kts | 285° |
| 2026-05-01 11:03 | 43.94919 | 11.46463 | 36351 ft | 392 kts | 285° |
| 2026-05-01 11:03 | 43.96185 | 11.39101 | 36336 ft | 392 kts | 285° |
| 2026-05-01 11:04 | 43.97442 | 11.31736 | 36335 ft | 392 kts | 285° |
| 2026-05-01 11:04 | 43.98682 | 11.24350 | 36333 ft | 393 kts | 285° |
| 2026-05-01 11:05 | 43.99926 | 11.16942 | 36332 ft | 394 kts | 285° |
| 2026-05-01 11:05 | 44.01173 | 11.09541 | 36330 ft | 394 kts | 285° |
| 2026-05-01 11:06 | 44.02404 | 11.02172 | 36333 ft | 394 kts | 285° |
| 2026-05-01 11:06 | 44.03792 | 10.94814 | 36335 ft | 393 kts | 289° |
| 2026-05-01 11:07 | 44.05417 | 10.87556 | 36176 ft | 395 kts | 290° |
| 2026-05-01 11:07 | 44.06245 | 10.83916 | 35796 ft | 394 kts | 289° |
| 2026-05-01 11:07 | 44.07055 | 10.80284 | 35430 ft | 393 kts | 289° |
| 2026-05-01 11:07 | 44.07843 | 10.76668 | 35066 ft | 389 kts | 289° |
| 2026-05-01 11:08 | 44.08612 | 10.73082 | 34690 ft | 384 kts | 289° |
| 2026-05-01 11:08 | 44.09365 | 10.69540 | 34333 ft | 379 kts | 288° |
| 2026-05-01 11:08 | 44.10837 | 10.62577 | 33532 ft | 372 kts | 289° |
| 2026-05-01 11:09 | 44.11563 | 10.59140 | 33114 ft | 369 kts | 288° |
| 2026-05-01 11:09 | 44.12285 | 10.55721 | 32714 ft | 366 kts | 288° |
| 2026-05-01 11:09 | 44.12997 | 10.52330 | 32325 ft | 364 kts | 288° |
| 2026-05-01 11:10 | 44.14401 | 10.45596 | 31557 ft | 366 kts | 288° |
| 2026-05-01 11:10 | 44.15132 | 10.42086 | 31185 ft | 388 kts | 288° |
| 2026-05-01 11:10 | 44.15902 | 10.38396 | 30812 ft | 402 kts | 288° |
| 2026-05-01 11:10 | 44.16678 | 10.34643 | 30433 ft | 405 kts | 288° |
| 2026-05-01 11:11 | 44.17451 | 10.30922 | 30019 ft | 405 kts | 288° |
| 2026-05-01 11:11 | 44.18247 | 10.27114 | 29584 ft | 404 kts | 288° |
| 2026-05-01 11:11 | 44.19021 | 10.23417 | 29165 ft | 403 kts | 288° |
| 2026-05-01 11:11 | 44.19803 | 10.19674 | 28744 ft | 402 kts | 288° |
| 2026-05-01 11:12 | 44.20795 | 10.16065 | 28331 ft | 397 kts | 301° |
| 2026-05-01 11:12 | 44.22446 | 10.13009 | 27926 ft | 395 kts | 316° |
| 2026-05-01 11:12 | 44.24542 | 10.10539 | 27539 ft | 395 kts | 321° |
| 2026-05-01 11:12 | 44.26672 | 10.08128 | 27149 ft | 394 kts | 321° |
| 2026-05-01 11:13 | 44.28801 | 10.05724 | 26766 ft | 393 kts | 321° |
| 2026-05-01 11:13 | 44.30925 | 10.03323 | 26388 ft | 393 kts | 321° |
| 2026-05-01 11:13 | 44.33047 | 10.00920 | 26037 ft | 392 kts | 321° |
| 2026-05-01 11:13 | 44.35157 | 9.98522 | 25720 ft | 391 kts | 321° |
| 2026-05-01 11:14 | 44.37265 | 9.96118 | 25416 ft | 391 kts | 322° |
| 2026-05-01 11:14 | 44.39367 | 9.93718 | 25100 ft | 390 kts | 322° |
| 2026-05-01 11:14 | 44.41467 | 9.91319 | 24792 ft | 389 kts | 322° |
| 2026-05-01 11:14 | 44.43562 | 9.88929 | 24491 ft | 389 kts | 322° |
| 2026-05-01 11:15 | 44.45660 | 9.86537 | 24188 ft | 388 kts | 322° |
| 2026-05-01 11:15 | 44.47755 | 9.84147 | 23879 ft | 388 kts | 322° |
| 2026-05-01 11:15 | 44.49841 | 9.81764 | 23512 ft | 387 kts | 322° |
| 2026-05-01 11:15 | 44.51920 | 9.79384 | 23164 ft | 385 kts | 322° |
| 2026-05-01 11:16 | 44.53986 | 9.77012 | 22812 ft | 383 kts | 322° |
| 2026-05-01 11:16 | 44.56040 | 9.74650 | 22460 ft | 382 kts | 322° |
| 2026-05-01 11:16 | 44.58091 | 9.72294 | 22125 ft | 380 kts | 322° |
| 2026-05-01 11:16 | 44.60136 | 9.69947 | 21785 ft | 379 kts | 322° |
| 2026-05-01 11:17 | 44.62172 | 9.67609 | 21447 ft | 377 kts | 323° |
| 2026-05-01 11:17 | 44.64196 | 9.65279 | 21120 ft | 376 kts | 322° |
| 2026-05-01 11:17 | 44.66213 | 9.62952 | 20801 ft | 375 kts | 322° |
| 2026-05-01 11:17 | 44.68197 | 9.60659 | 20477 ft | 374 kts | 322° |
| 2026-05-01 11:18 | 44.70203 | 9.58339 | 20154 ft | 373 kts | 323° |
| 2026-05-01 11:18 | 44.72201 | 9.56027 | 19833 ft | 372 kts | 323° |
| 2026-05-01 11:18 | 44.74195 | 9.53717 | 19521 ft | 371 kts | 323° |
| 2026-05-01 11:18 | 44.76182 | 9.51418 | 19207 ft | 369 kts | 323° |
| 2026-05-01 11:19 | 44.78167 | 9.49122 | 18898 ft | 368 kts | 323° |
| 2026-05-01 11:19 | 44.80143 | 9.46833 | 18577 ft | 367 kts | 323° |
| 2026-05-01 11:19 | 44.82115 | 9.44543 | 18233 ft | 366 kts | 322° |
| 2026-05-01 11:19 | 44.84071 | 9.42267 | 17880 ft | 364 kts | 323° |
| 2026-05-01 11:20 | 44.86016 | 9.40000 | 17535 ft | 362 kts | 323° |
| 2026-05-01 11:20 | 44.87950 | 9.37745 | 17190 ft | 360 kts | 323° |
| 2026-05-01 11:20 | 44.89875 | 9.35497 | 16858 ft | 358 kts | 323° |
| 2026-05-01 11:20 | 44.91787 | 9.33263 | 16526 ft | 356 kts | 322° |
| 2026-05-01 11:21 | 44.93691 | 9.31040 | 16197 ft | 355 kts | 323° |
| 2026-05-01 11:21 | 44.95590 | 9.28821 | 15871 ft | 353 kts | 323° |
| 2026-05-01 11:21 | 44.97451 | 9.26645 | 15557 ft | 351 kts | 323° |
| 2026-05-01 11:21 | 44.99329 | 9.24448 | 15242 ft | 350 kts | 323° |
| 2026-05-01 11:22 | 45.01201 | 9.22258 | 14921 ft | 348 kts | 322° |
| 2026-05-01 11:22 | 45.03061 | 9.20078 | 14614 ft | 347 kts | 322° |
| 2026-05-01 11:22 | 45.04912 | 9.17902 | 14308 ft | 345 kts | 322° |
| 2026-05-01 11:22 | 45.06739 | 9.15754 | 13977 ft | 338 kts | 322° |
| 2026-05-01 11:23 | 45.08530 | 9.13650 | 13534 ft | 334 kts | 322° |
| 2026-05-01 11:23 | 45.10328 | 9.11538 | 12733 ft | 334 kts | 322° |
| 2026-05-01 11:23 | 45.12097 | 9.09452 | 11976 ft | 329 kts | 322° |
| 2026-05-01 11:23 | 45.13842 | 9.07394 | 11227 ft | 324 kts | 322° |
| 2026-05-01 11:24 | 45.15562 | 9.05366 | 10491 ft | 320 kts | 322° |
| 2026-05-01 11:24 | 45.17263 | 9.03361 | 9719 ft | 317 kts | 321° |
| 2026-05-01 11:24 | 45.20627 | 8.99387 | 8169 ft | 313 kts | 321° |
| 2026-05-01 11:25 | 45.22290 | 8.97420 | 7410 ft | 311 kts | 321° |
| 2026-05-01 11:25 | 45.25583 | 8.93512 | 6310 ft | 296 kts | 322° |
| 2026-05-01 11:25 | 45.26602 | 8.92297 | 6149 ft | 285 kts | 322° |
| 2026-05-01 11:26 | 45.28211 | 8.90376 | 5870 ft | 268 kts | 322° |
| 2026-05-01 11:26 | 45.31083 | 8.86967 | 4830 ft | 270 kts | 322° |
| 2026-05-01 11:26 | 45.32527 | 8.85254 | 4313 ft | 270 kts | 322° |
| 2026-05-01 11:27 | 45.33965 | 8.83546 | 3875 ft | 268 kts | 322° |
| 2026-05-01 11:27 | 45.35355 | 8.81890 | 3537 ft | 260 kts | 322° |
| 2026-05-01 11:27 | 45.36757 | 8.80382 | 3193 ft | 246 kts | 338° |
| 2026-05-01 11:27 | 45.38374 | 8.80055 | 2958 ft | 232 kts | 13° |
| 2026-05-01 11:28 | 45.39890 | 8.80701 | 3001 ft | 220 kts | 15° |
| 2026-05-01 11:28 | 45.41400 | 8.80889 | 3118 ft | 220 kts | 358° |
| 2026-05-01 11:28 | 45.42901 | 8.80384 | 2888 ft | 226 kts | 340° |
| 2026-05-01 11:29 | 45.45911 | 8.78662 | 2362 ft | 229 kts | 340° |
| 2026-05-01 11:29 | 45.47358 | 8.77825 | 2381 ft | 220 kts | 342° |
| 2026-05-01 11:29 | 45.50299 | 8.76880 | 1895 ft | 218 kts | 352° |
| 2026-05-01 11:30 | 45.51778 | 8.76558 | 1807 ft | 210 kts | 354° |
| 2026-05-01 11:30 | 45.53162 | 8.76230 | 1782 ft | 191 kts | 351° |
| 2026-05-01 11:30 | 45.54377 | 8.75788 | 1788 ft | 171 kts | 343° |
| 2026-05-01 11:30 | 45.55518 | 8.75365 | 1652 ft | 163 kts | 350° |
| 2026-05-01 11:31 | 45.56620 | 8.75084 | 1678 ft | 162 kts | 353° |
| 2026-05-01 11:31 | 45.57722 | 8.74823 | 1595 ft | 160 kts | 351° |
| 2026-05-01 11:31 | 45.58818 | 8.74515 | 1350 ft | 155 kts | 351° |
| 2026-05-01 11:31 | 45.59839 | 8.74226 | 1147 ft | 145 kts | 349° |
| 2026-05-01 11:32 | 45.60816 | 8.73952 | 936 ft | 141 kts | 349° |
| 2026-05-01 11:32 | 45.61779 | 8.73697 | 777 ft | 140 kts | 349° |
| 2026-05-01 11:32 | 45.62713 | 8.73439 | 722 ft | 126 kts | 349° |
| 2026-05-01 11:32 | 45.63416 | 8.73248 | 716 ft | 74 kts | 349° |
| 2026-05-01 11:33 | 45.63676 | 8.73141 | 718 ft | 26 kts | 325° |
| 2026-05-01 11:33 | 45.63764 | 8.73021 | 717 ft | 18 kts | 310° |
| 2026-05-01 11:33 | 45.63839 | 8.72872 | 717 ft | 12 kts | 304° |
| 2026-05-01 11:33 | 45.63890 | 8.72760 | 717 ft | 15 kts | 303° |
| 2026-05-01 11:34 | 45.63933 | 8.72655 | 717 ft | 10 kts | 293° |
| 2026-05-01 11:34 | 45.63905 | 8.72581 | 716 ft | 11 kts | 195° |
| 2026-05-01 11:34 | 45.63824 | 8.72594 | 718 ft | 13 kts | 167° |
| 2026-05-01 11:34 | 45.63725 | 8.72621 | 718 ft | 15 kts | 169° |
| 2026-05-01 11:35 | 45.63616 | 8.72652 | 716 ft | 17 kts | 169° |
| 2026-05-01 11:35 | 45.63489 | 8.72688 | 716 ft | 16 kts | 168° |
| 2026-05-01 11:35 | 45.63385 | 8.72644 | 718 ft | 17 kts | 205° |
| 2026-05-01 11:35 | 45.63273 | 8.72557 | 718 ft | 20 kts | 214° |
| 2026-05-01 11:36 | 45.63154 | 8.72440 | 718 ft | 22 kts | 215° |
| 2026-05-01 11:36 | 45.63042 | 8.72288 | 719 ft | 24 kts | 249° |
| 2026-05-01 11:36 | 45.63007 | 8.72047 | 716 ft | 26 kts | 259° |
| 2026-05-01 11:36 | 45.62974 | 8.71791 | 716 ft | 19 kts | 259° |
| 2026-05-01 11:37 | 45.62956 | 8.71673 | 718 ft | 7 kts | 258° |
| 2026-05-01 11:37 | 45.62990 | 8.71638 | 716 ft | 7 kts | 336° |
| 2026-05-01 11:37 | 45.63026 | 8.71616 | 718 ft | 4 kts | 336° |
| 2026-05-01 11:37 | 45.63029 | 8.71614 | 718 ft | 0 kts | 336° |